sensor_id;sensor_type;location;lat;lon;timestamp;pressure;altitude;pressure_sealevel;temperature;humidity
9462;BME280;4769;42.660;23.262;2023-02-04T00:01:24;93759.09;;;2.95;71.42
9462;BME280;4769;42.660;23.262;2023-02-04T00:03:50;93740.88;;;2.82;72.34
9462;BME280;4769;42.660;23.262;2023-02-04T00:06:17;93743.06;;;2.92;72.94
9462;BME280;4769;42.660;23.262;2023-02-04T00:08:44;93741.06;;;2.87;74.26
9462;BME280;4769;42.660;23.262;2023-02-04T00:11:11;93738.06;;;2.77;77.13
9462;BME280;4769;42.660;23.262;2023-02-04T00:13:38;93749.69;;;2.75;79.80
9462;BME280;4769;42.660;23.262;2023-02-04T00:16:07;93721.88;;;2.75;81.59
9462;BME280;4769;42.660;23.262;2023-02-04T00:18:33;93730.06;;;2.72;82.78
9462;BME280;4769;42.660;23.262;2023-02-04T00:21:00;93739.66;;;2.85;83.74
9462;BME280;4769;42.660;23.262;2023-02-04T00:23:27;93730.06;;;2.92;84.53
9462;BME280;4769;42.660;23.262;2023-02-04T00:25:54;93718.66;;;2.67;86.31
9462;BME280;4769;42.660;23.262;2023-02-04T00:28:21;93717.06;;;2.66;87.36
9462;BME280;4769;42.660;23.262;2023-02-04T00:30:47;93722.66;;;2.63;88.63
9462;BME280;4769;42.660;23.262;2023-02-04T00:33:16;93724.09;;;2.46;90.26
9462;BME280;4769;42.660;23.262;2023-02-04T00:35:42;93706.28;;;2.36;91.49
9462;BME280;4769;42.660;23.262;2023-02-04T00:38:09;93716.66;;;2.23;94.20
9462;BME280;4769;42.660;23.262;2023-02-04T00:40:38;93713.88;;;2.31;94.25
9462;BME280;4769;42.660;23.262;2023-02-04T00:43:05;93682.19;;;2.80;86.83
9462;BME280;4769;42.660;23.262;2023-02-04T00:45:31;93698.31;;;3.21;82.01
9462;BME280;4769;42.660;23.262;2023-02-04T00:47:58;93711.38;;;3.08;83.31
9462;BME280;4769;42.660;23.262;2023-02-04T00:50:26;93676.47;;;3.22;81.13
9462;BME280;4769;42.660;23.262;2023-02-04T00:52:53;93675.34;;;3.49;80.09
9462;BME280;4769;42.660;23.262;2023-02-04T00:55:20;93647.56;;;3.67;78.93
9462;BME280;4769;42.660;23.262;2023-02-04T00:57:47;93685.84;;;3.73;78.62
9462;BME280;4769;42.660;23.262;2023-02-04T01:00:16;93688.72;;;3.59;79.33
9462;BME280;4769;42.660;23.262;2023-02-04T01:02:43;93672.84;;;3.67;80.34
9462;BME280;4769;42.660;23.262;2023-02-04T01:05:10;93684.63;;;3.32;85.51
9462;BME280;4769;42.660;23.262;2023-02-04T01:07:38;93668.38;;;3.43;86.80
9462;BME280;4769;42.660;23.262;2023-02-04T01:10:05;93681.84;;;3.33;88.41
9462;BME280;4769;42.660;23.262;2023-02-04T01:12:32;93670.91;;;3.05;90.74
9462;BME280;4769;42.660;23.262;2023-02-04T01:14:59;93664.97;;;2.92;92.63
9462;BME280;4769;42.660;23.262;2023-02-04T01:17:26;93652.81;;;2.73;93.79
9462;BME280;4769;42.660;23.262;2023-02-04T01:19:53;93661.00;;;2.76;93.47
9462;BME280;4769;42.660;23.262;2023-02-04T01:22:19;93665.56;;;2.87;93.63
9462;BME280;4769;42.660;23.262;2023-02-04T01:24:47;93675.75;;;3.02;92.48
9462;BME280;4769;42.660;23.262;2023-02-04T01:27:15;93646.66;;;3.11;92.22
9462;BME280;4769;42.660;23.262;2023-02-04T01:29:42;93647.34;;;2.81;92.90
9462;BME280;4769;42.660;23.262;2023-02-04T01:32:08;93621.78;;;2.65;95.06
9462;BME280;4769;42.660;23.262;2023-02-04T01:34:35;93627.19;;;2.57;95.01
9462;BME280;4769;42.660;23.262;2023-02-04T01:37:02;93631.63;;;2.50;95.14
9462;BME280;4769;42.660;23.262;2023-02-04T01:39:29;93646.22;;;2.51;95.36
9462;BME280;4769;42.660;23.262;2023-02-04T01:41:57;93617.63;;;2.38;95.92
9462;BME280;4769;42.660;23.262;2023-02-04T01:44:25;93621.81;;;2.45;95.57
9462;BME280;4769;42.660;23.262;2023-02-04T01:46:52;93632.84;;;2.47;96.05
9462;BME280;4769;42.660;23.262;2023-02-04T01:49:20;93633.63;;;2.48;95.78
9462;BME280;4769;42.660;23.262;2023-02-04T01:51:47;93627.63;;;2.47;95.81
9462;BME280;4769;42.660;23.262;2023-02-04T01:54:14;93621.81;;;2.45;95.85
9462;BME280;4769;42.660;23.262;2023-02-04T01:56:44;93589.66;;;2.20;96.92
9462;BME280;4769;42.660;23.262;2023-02-04T01:59:15;93624.88;;;2.10;97.56
9462;BME280;4769;42.660;23.262;2023-02-04T02:01:44;93623.84;;;2.17;97.58
9462;BME280;4769;42.660;23.262;2023-02-04T02:04:14;93606.84;;;2.21;97.24
9462;BME280;4769;42.660;23.262;2023-02-04T02:06:43;93592.84;;;2.22;96.90
9462;BME280;4769;42.660;23.262;2023-02-04T02:09:11;93619.47;;;2.31;96.66
9462;BME280;4769;42.660;23.262;2023-02-04T02:11:38;93590.22;;;2.42;95.95
9462;BME280;4769;42.660;23.262;2023-02-04T02:14:05;93577.72;;;2.70;91.76
9462;BME280;4769;42.660;23.262;2023-02-04T02:16:33;93556.28;;;3.18;86.57
9462;BME280;4769;42.660;23.262;2023-02-04T02:19:00;93591.91;;;3.55;83.78
9462;BME280;4769;42.660;23.262;2023-02-04T02:21:32;93552.25;;;3.78;82.14
9462;BME280;4769;42.660;23.262;2023-02-04T02:24:23;93578.59;;;3.94;80.55
9462;BME280;4769;42.660;23.262;2023-02-04T02:26:51;93562.44;;;4.28;78.28
9462;BME280;4769;42.660;23.262;2023-02-04T02:29:18;93574.22;;;3.88;81.89
9462;BME280;4769;42.660;23.262;2023-02-04T02:31:46;93548.47;;;3.74;82.51
9462;BME280;4769;42.660;23.262;2023-02-04T02:34:13;93540.31;;;3.64;83.18
9462;BME280;4769;42.660;23.262;2023-02-04T02:36:39;93519.97;;;3.54;83.77
9462;BME280;4769;42.660;23.262;2023-02-04T02:39:08;93532.66;;;3.69;83.81
9462;BME280;4769;42.660;23.262;2023-02-04T02:41:36;93522.88;;;3.64;84.20
9462;BME280;4769;42.660;23.262;2023-02-04T02:44:04;93522.22;;;3.20;87.64
9462;BME280;4769;42.660;23.262;2023-02-04T02:46:31;93526.59;;;3.19;88.44
9462;BME280;4769;42.660;23.262;2023-02-04T02:48:58;93511.66;;;3.08;89.60
9462;BME280;4769;42.660;23.262;2023-02-04T02:51:25;93516.47;;;3.05;89.46
9462;BME280;4769;42.660;23.262;2023-02-04T02:53:52;93514.69;;;2.99;90.85
9462;BME280;4769;42.660;23.262;2023-02-04T02:56:20;93511.56;;;2.90;90.72
9462;BME280;4769;42.660;23.262;2023-02-04T02:58:47;93492.69;;;2.95;90.01
9462;BME280;4769;42.660;23.262;2023-02-04T03:01:14;93502.31;;;2.94;90.49
9462;BME280;4769;42.660;23.262;2023-02-04T03:03:44;93494.94;;;2.85;91.12
9462;BME280;4769;42.660;23.262;2023-02-04T03:06:16;93493.19;;;3.10;90.98
9462;BME280;4769;42.660;23.262;2023-02-04T03:08:45;93487.78;;;3.11;87.17
9462;BME280;4769;42.660;23.262;2023-02-04T03:11:13;93506.16;;;3.47;85.02
9462;BME280;4769;42.660;23.262;2023-02-04T03:13:42;93491.72;;;3.51;85.93
9462;BME280;4769;42.660;23.262;2023-02-04T03:16:09;93523.78;;;3.52;85.08
9462;BME280;4769;42.660;23.262;2023-02-04T03:18:36;93527.94;;;3.59;82.49
9462;BME280;4769;42.660;23.262;2023-02-04T03:21:05;93514.78;;;3.97;80.59
9462;BME280;4769;42.660;23.262;2023-02-04T03:23:33;93501.59;;;3.92;81.42
9462;BME280;4769;42.660;23.262;2023-02-04T03:26:00;93493.63;;;4.05;81.21
9462;BME280;4769;42.660;23.262;2023-02-04T03:28:28;93488.78;;;4.08;79.75
9462;BME280;4769;42.660;23.262;2023-02-04T03:30:57;93516.84;;;4.31;78.03
9462;BME280;4769;42.660;23.262;2023-02-04T03:33:26;93485.38;;;4.44;77.88
9462;BME280;4769;42.660;23.262;2023-02-04T03:35:55;93509.75;;;4.38;77.07
9462;BME280;4769;42.660;23.262;2023-02-04T03:38:22;93519.09;;;4.45;77.69
9462;BME280;4769;42.660;23.262;2023-02-04T03:40:49;93504.06;;;4.05;78.02
9462;BME280;4769;42.660;23.262;2023-02-04T03:43:16;93488.50;;;4.16;78.32
9462;BME280;4769;42.660;23.262;2023-02-04T03:45:43;93478.28;;;4.33;77.69
9462;BME280;4769;42.660;23.262;2023-02-04T03:48:11;93482.63;;;4.39;77.27
9462;BME280;4769;42.660;23.262;2023-02-04T03:50:37;93505.41;;;4.50;75.61
9462;BME280;4769;42.660;23.262;2023-02-04T03:53:04;93465.25;;;4.51;75.61
9462;BME280;4769;42.660;23.262;2023-02-04T03:55:31;93463.44;;;4.33;76.39
9462;BME280;4769;42.660;23.262;2023-02-04T03:57:58;93455.16;;;4.54;75.23
9462;BME280;4769;42.660;23.262;2023-02-04T04:00:25;93458.91;;;4.58;75.31
9462;BME280;4769;42.660;23.262;2023-02-04T04:02:51;93438.94;;;4.34;76.47
9462;BME280;4769;42.660;23.262;2023-02-04T04:05:20;93451.53;;;4.37;76.63
9462;BME280;4769;42.660;23.262;2023-02-04T04:07:46;93428.66;;;4.21;77.24
9462;BME280;4769;42.660;23.262;2023-02-04T04:10:13;93433.06;;;4.03;78.88
9462;BME280;4769;42.660;23.262;2023-02-04T04:12:40;93405.84;;;3.99;80.15
9462;BME280;4769;42.660;23.262;2023-02-04T04:15:08;93416.50;;;4.15;80.64
9462;BME280;4769;42.660;23.262;2023-02-04T04:17:35;93419.38;;;4.25;80.07
9462;BME280;4769;42.660;23.262;2023-02-04T04:20:02;93410.47;;;3.97;83.07
9462;BME280;4769;42.660;23.262;2023-02-04T04:22:30;93413.41;;;4.00;84.07
9462;BME280;4769;42.660;23.262;2023-02-04T04:24:58;93416.63;;;4.02;82.32
9462;BME280;4769;42.660;23.262;2023-02-04T04:27:24;93421.97;;;4.25;80.56
9462;BME280;4769;42.660;23.262;2023-02-04T04:29:51;93430.97;;;3.93;83.68
9462;BME280;4769;42.660;23.262;2023-02-04T04:32:18;93445.38;;;4.14;83.15
9462;BME280;4769;42.660;23.262;2023-02-04T04:34:45;93439.56;;;4.30;80.04
9462;BME280;4769;42.660;23.262;2023-02-04T04:37:12;93469.31;;;4.47;79.68
9462;BME280;4769;42.660;23.262;2023-02-04T04:39:40;93448.00;;;4.14;81.94
9462;BME280;4769;42.660;23.262;2023-02-04T04:42:07;93438.44;;;4.08;82.34
9462;BME280;4769;42.660;23.262;2023-02-04T04:44:34;93450.31;;;4.04;83.94
9462;BME280;4769;42.660;23.262;2023-02-04T04:47:00;93461.03;;;3.96;84.02
9462;BME280;4769;42.660;23.262;2023-02-04T04:49:27;93475.38;;;4.05;83.48
9462;BME280;4769;42.660;23.262;2023-02-04T04:51:54;93473.06;;;3.97;82.68
9462;BME280;4769;42.660;23.262;2023-02-04T04:54:21;93479.44;;;4.01;84.12
9462;BME280;4769;42.660;23.262;2023-02-04T04:56:49;93471.88;;;3.93;84.84
9462;BME280;4769;42.660;23.262;2023-02-04T04:59:16;93476.09;;;3.94;85.17
9462;BME280;4769;42.660;23.262;2023-02-04T05:01:43;93470.72;;;3.89;85.05
9462;BME280;4769;42.660;23.262;2023-02-04T05:04:09;93475.34;;;3.87;86.71
9462;BME280;4769;42.660;23.262;2023-02-04T05:06:36;93471.69;;;3.52;89.47
9462;BME280;4769;42.660;23.262;2023-02-04T05:09:03;93455.94;;;3.58;91.21
9462;BME280;4769;42.660;23.262;2023-02-04T05:11:30;93453.84;;;3.49;92.84
9462;BME280;4769;42.660;23.262;2023-02-04T05:13:58;93471.88;;;3.50;93.91
9462;BME280;4769;42.660;23.262;2023-02-04T05:16:25;93472.88;;;3.25;96.41
9462;BME280;4769;42.660;23.262;2023-02-04T05:18:52;93480.81;;;3.36;95.51
9462;BME280;4769;42.660;23.262;2023-02-04T05:21:18;93483.78;;;3.40;93.96
9462;BME280;4769;42.660;23.262;2023-02-04T05:23:45;93483.41;;;3.36;96.07
9462;BME280;4769;42.660;23.262;2023-02-04T05:26:12;93489.41;;;3.12;98.79
9462;BME280;4769;42.660;23.262;2023-02-04T05:28:39;93519.03;;;3.11;99.99
9462;BME280;4769;42.660;23.262;2023-02-04T05:31:07;93486.94;;;2.86;100.00
9462;BME280;4769;42.660;23.262;2023-02-04T05:33:34;93505.97;;;2.87;100.00
9462;BME280;4769;42.660;23.262;2023-02-04T05:36:00;93515.06;;;3.02;100.00
9462;BME280;4769;42.660;23.262;2023-02-04T05:38:27;93527.00;;;3.16;97.97
9462;BME280;4769;42.660;23.262;2023-02-04T05:40:54;93550.00;;;3.26;96.38
9462;BME280;4769;42.660;23.262;2023-02-04T05:43:20;93559.72;;;3.12;96.79
9462;BME280;4769;42.660;23.262;2023-02-04T05:45:47;93565.38;;;3.03;98.41
9462;BME280;4769;42.660;23.262;2023-02-04T05:48:15;93563.16;;;3.00;98.82
9462;BME280;4769;42.660;23.262;2023-02-04T05:50:42;93568.34;;;3.06;98.87
9462;BME280;4769;42.660;23.262;2023-02-04T05:53:09;93580.09;;;3.22;97.64
9462;BME280;4769;42.660;23.262;2023-02-04T05:55:35;93565.78;;;2.93;98.56
9462;BME280;4769;42.660;23.262;2023-02-04T05:58:02;93553.63;;;2.87;99.79
9462;BME280;4769;42.660;23.262;2023-02-04T06:00:29;93542.81;;;2.84;98.86
9462;BME280;4769;42.660;23.262;2023-02-04T06:02:56;93513.16;;;2.91;98.71
9462;BME280;4769;42.660;23.262;2023-02-04T06:05:24;93501.56;;;2.87;96.76
9462;BME280;4769;42.660;23.262;2023-02-04T06:07:51;93488.75;;;2.86;96.77
9462;BME280;4769;42.660;23.262;2023-02-04T06:10:17;93500.84;;;3.05;94.07
9462;BME280;4769;42.660;23.262;2023-02-04T06:12:45;93504.63;;;3.09;93.15
9462;BME280;4769;42.660;23.262;2023-02-04T06:15:12;93512.59;;;3.14;91.65
9462;BME280;4769;42.660;23.262;2023-02-04T06:17:39;93522.75;;;2.91;95.68
9462;BME280;4769;42.660;23.262;2023-02-04T06:20:06;93534.47;;;3.13;92.03
9462;BME280;4769;42.660;23.262;2023-02-04T06:22:35;93520.66;;;3.12;92.11
9462;BME280;4769;42.660;23.262;2023-02-04T06:25:02;93532.38;;;3.21;89.48
9462;BME280;4769;42.660;23.262;2023-02-04T06:27:28;93539.38;;;3.27;90.77
9462;BME280;4769;42.660;23.262;2023-02-04T06:29:55;93546.34;;;3.33;90.83
9462;BME280;4769;42.660;23.262;2023-02-04T06:32:22;93540.69;;;3.43;88.34
9462;BME280;4769;42.660;23.262;2023-02-04T06:34:49;93545.38;;;3.28;88.70
9462;BME280;4769;42.660;23.262;2023-02-04T06:37:16;93545.91;;;3.43;87.13
9462;BME280;4769;42.660;23.262;2023-02-04T06:39:44;93563.03;;;3.57;84.16
9462;BME280;4769;42.660;23.262;2023-02-04T06:42:11;93557.13;;;3.68;84.37
9462;BME280;4769;42.660;23.262;2023-02-04T06:44:38;93562.34;;;3.68;83.77
9462;BME280;4769;42.660;23.262;2023-02-04T06:47:05;93572.75;;;3.74;83.33
9462;BME280;4769;42.660;23.262;2023-02-04T06:49:32;93552.34;;;3.65;84.43
9462;BME280;4769;42.660;23.262;2023-02-04T06:51:59;93553.75;;;3.92;84.79
9462;BME280;4769;42.660;23.262;2023-02-04T06:54:26;93551.13;;;3.92;83.94
9462;BME280;4769;42.660;23.262;2023-02-04T06:56:54;93547.94;;;3.90;83.88
9462;BME280;4769;42.660;23.262;2023-02-04T06:59:28;93564.91;;;3.74;84.22
9462;BME280;4769;42.660;23.262;2023-02-04T07:01:57;93530.75;;;3.58;84.80
9462;BME280;4769;42.660;23.262;2023-02-04T07:04:24;93550.38;;;3.60;84.96
9462;BME280;4769;42.660;23.262;2023-02-04T07:06:51;93542.22;;;3.75;82.95
9462;BME280;4769;42.660;23.262;2023-02-04T07:09:18;93555.56;;;3.91;82.16
9462;BME280;4769;42.660;23.262;2023-02-04T07:11:44;93550.97;;;3.87;82.42
9462;BME280;4769;42.660;23.262;2023-02-04T07:14:13;93529.09;;;3.88;82.41
9462;BME280;4769;42.660;23.262;2023-02-04T07:16:39;93564.22;;;4.10;81.43
9462;BME280;4769;42.660;23.262;2023-02-04T07:19:06;93550.97;;;4.11;81.42
9462;BME280;4769;42.660;23.262;2023-02-04T07:21:33;93541.09;;;4.13;82.47
9462;BME280;4769;42.660;23.262;2023-02-04T07:24:00;93528.78;;;4.02;81.99
9462;BME280;4769;42.660;23.262;2023-02-04T07:26:27;93532.34;;;4.08;81.54
9462;BME280;4769;42.660;23.262;2023-02-04T07:28:54;93514.69;;;4.46;80.04
9462;BME280;4769;42.660;23.262;2023-02-04T07:31:22;93521.56;;;4.58;78.00
9462;BME280;4769;42.660;23.262;2023-02-04T07:33:48;93531.19;;;4.58;78.47
9462;BME280;4769;42.660;23.262;2023-02-04T07:36:15;93526.66;;;4.53;78.15
9462;BME280;4769;42.660;23.262;2023-02-04T07:38:42;93516.97;;;4.72;78.53
9462;BME280;4769;42.660;23.262;2023-02-04T07:41:09;93512.84;;;4.46;77.78
9462;BME280;4769;42.660;23.262;2023-02-04T07:43:35;93523.97;;;4.78;77.35
9462;BME280;4769;42.660;23.262;2023-02-04T07:46:02;93541.50;;;4.71;77.05
9462;BME280;4769;42.660;23.262;2023-02-04T07:48:30;93527.50;;;4.65;77.38
9462;BME280;4769;42.660;23.262;2023-02-04T07:50:57;93529.91;;;4.67;77.53
9462;BME280;4769;42.660;23.262;2023-02-04T07:53:25;93515.84;;;4.50;77.13
9462;BME280;4769;42.660;23.262;2023-02-04T07:55:52;93514.09;;;4.62;77.60
9462;BME280;4769;42.660;23.262;2023-02-04T07:58:19;93545.88;;;4.59;76.71
9462;BME280;4769;42.660;23.262;2023-02-04T08:00:46;93509.66;;;4.26;77.51
9462;BME280;4769;42.660;23.262;2023-02-04T08:03:12;93523.59;;;4.38;77.20
9462;BME280;4769;42.660;23.262;2023-02-04T08:05:45;93519.47;;;4.49;77.72
9462;BME280;4769;42.660;23.262;2023-02-04T08:08:12;93518.88;;;4.47;77.24
9462;BME280;4769;42.660;23.262;2023-02-04T08:10:39;93526.66;;;4.53;77.65
9462;BME280;4769;42.660;23.262;2023-02-04T08:13:06;93528.31;;;4.48;77.87
9462;BME280;4769;42.660;23.262;2023-02-04T08:15:33;93526.66;;;4.53;77.73
9462;BME280;4769;42.660;23.262;2023-02-04T08:18:00;93520.41;;;4.36;77.89
9462;BME280;4769;42.660;23.262;2023-02-04T08:20:27;93521.56;;;4.58;77.30
9462;BME280;4769;42.660;23.262;2023-02-04T08:22:55;93528.53;;;4.64;76.76
9462;BME280;4769;42.660;23.262;2023-02-04T08:25:22;93501.31;;;4.72;76.88
9462;BME280;4769;42.660;23.262;2023-02-04T08:27:49;93526.06;;;4.69;77.24
9462;BME280;4769;42.660;23.262;2023-02-04T08:30:17;93517.78;;;4.72;77.78
9462;BME280;4769;42.660;23.262;2023-02-04T08:32:43;93505.09;;;4.76;77.97
9462;BME280;4769;42.660;23.262;2023-02-04T08:35:10;93514.81;;;4.69;79.42
9462;BME280;4769;42.660;23.262;2023-02-04T08:37:38;93512.00;;;4.52;81.15
9462;BME280;4769;42.660;23.262;2023-02-04T08:40:07;93504.88;;;4.23;83.01
9462;BME280;4769;42.660;23.262;2023-02-04T08:42:35;93499.72;;;4.35;83.95
9462;BME280;4769;42.660;23.262;2023-02-04T08:45:02;93508.16;;;4.37;83.88
9462;BME280;4769;42.660;23.262;2023-02-04T08:47:29;93502.06;;;4.25;83.58
9462;BME280;4769;42.660;23.262;2023-02-04T08:49:56;93494.97;;;4.32;84.97
9462;BME280;4769;42.660;23.262;2023-02-04T08:52:28;93498.50;;;4.37;84.79
9462;BME280;4769;42.660;23.262;2023-02-04T08:54:59;93511.19;;;4.52;85.66
9462;BME280;4769;42.660;23.262;2023-02-04T08:57:27;93480.63;;;4.41;83.88
9462;BME280;4769;42.660;23.262;2023-02-04T08:59:55;93483.31;;;4.34;86.26
9462;BME280;4769;42.660;23.262;2023-02-04T09:02:22;93486.94;;;4.33;85.18
9462;BME280;4769;42.660;23.262;2023-02-04T09:04:49;93462.50;;;4.10;84.02
9462;BME280;4769;42.660;23.262;2023-02-04T09:07:18;93484.38;;;4.27;80.91
9462;BME280;4769;42.660;23.262;2023-02-04T09:09:46;93478.22;;;4.57;80.95
9462;BME280;4769;42.660;23.262;2023-02-04T09:12:13;93495.13;;;4.55;82.53
9462;BME280;4769;42.660;23.262;2023-02-04T09:14:42;93483.50;;;4.33;82.25
9462;BME280;4769;42.660;23.262;2023-02-04T09:17:09;93474.09;;;4.50;79.31
9462;BME280;4769;42.660;23.262;2023-02-04T09:19:35;93452.91;;;4.40;80.61
9462;BME280;4769;42.660;23.262;2023-02-04T09:22:02;93475.53;;;4.46;78.14
9462;BME280;4769;42.660;23.262;2023-02-04T09:24:29;93485.09;;;4.70;78.58
9462;BME280;4769;42.660;23.262;2023-02-04T09:26:56;93468.56;;;4.58;79.81
9462;BME280;4769;42.660;23.262;2023-02-04T09:29:23;93485.53;;;4.31;82.22
9462;BME280;4769;42.660;23.262;2023-02-04T09:31:51;93483.06;;;4.18;82.32
9462;BME280;4769;42.660;23.262;2023-02-04T09:34:18;93482.91;;;4.31;82.91
9462;BME280;4769;42.660;23.262;2023-02-04T09:36:45;93473.56;;;4.23;83.17
9462;BME280;4769;42.660;23.262;2023-02-04T09:39:12;93485.91;;;4.34;84.86
9462;BME280;4769;42.660;23.262;2023-02-04T09:41:44;93471.63;;;4.19;86.65
9462;BME280;4769;42.660;23.262;2023-02-04T09:44:13;93482.47;;;4.16;88.08
9462;BME280;4769;42.660;23.262;2023-02-04T09:46:44;93487.75;;;4.09;92.43
9462;BME280;4769;42.660;23.262;2023-02-04T09:49:14;93487.72;;;3.73;95.65
9462;BME280;4769;42.660;23.262;2023-02-04T09:51:42;93471.63;;;3.76;96.34
9462;BME280;4769;42.660;23.262;2023-02-04T09:54:12;93474.94;;;3.90;95.00
9462;BME280;4769;42.660;23.262;2023-02-04T09:56:40;93452.75;;;3.81;95.38
9462;BME280;4769;42.660;23.262;2023-02-04T09:59:10;93457.97;;;3.81;97.38
9462;BME280;4769;42.660;23.262;2023-02-04T10:01:38;93452.09;;;3.85;92.17
9462;BME280;4769;42.660;23.262;2023-02-04T10:04:09;93436.75;;;4.13;91.89
9462;BME280;4769;42.660;23.262;2023-02-04T10:06:39;93439.38;;;4.31;86.64
9462;BME280;4769;42.660;23.262;2023-02-04T10:09:08;93448.91;;;4.37;91.83
9462;BME280;4769;42.660;23.262;2023-02-04T10:11:40;93436.41;;;4.10;87.50
9462;BME280;4769;42.660;23.262;2023-02-04T10:14:12;93433.88;;;4.03;90.22
9462;BME280;4769;42.660;23.262;2023-02-04T10:16:41;93442.63;;;4.09;89.27
9462;BME280;4769;42.660;23.262;2023-02-04T10:19:13;93441.22;;;3.70;92.79
9462;BME280;4769;42.660;23.262;2023-02-04T10:21:43;93433.34;;;3.77;93.42
9462;BME280;4769;42.660;23.262;2023-02-04T10:24:13;93423.41;;;3.85;93.39
9462;BME280;4769;42.660;23.262;2023-02-04T10:26:41;93418.00;;;4.05;92.61
9462;BME280;4769;42.660;23.262;2023-02-04T10:29:13;93456.69;;;4.08;89.97
9462;BME280;4769;42.660;23.262;2023-02-04T10:31:42;93424.09;;;3.99;90.13
9462;BME280;4769;42.660;23.262;2023-02-04T10:34:11;93433.44;;;3.88;93.60
9462;BME280;4769;42.660;23.262;2023-02-04T10:36:40;93424.59;;;3.89;93.65
9462;BME280;4769;42.660;23.262;2023-02-04T10:39:14;93439.34;;;3.95;95.95
9462;BME280;4769;42.660;23.262;2023-02-04T10:41:46;93429.69;;;3.60;98.81
9462;BME280;4769;42.660;23.262;2023-02-04T10:44:14;93420.50;;;3.75;100.00
9462;BME280;4769;42.660;23.262;2023-02-04T10:46:41;93413.94;;;3.73;96.38
9462;BME280;4769;42.660;23.262;2023-02-04T10:49:17;93428.56;;;3.92;96.13
9462;BME280;4769;42.660;23.262;2023-02-04T10:51:46;93420.13;;;3.96;98.52
9462;BME280;4769;42.660;23.262;2023-02-04T10:54:15;93417.78;;;3.88;98.32
9462;BME280;4769;42.660;23.262;2023-02-04T10:57:06;93410.59;;;3.84;100.00
9462;BME280;4769;42.660;23.262;2023-02-04T10:59:35;93425.31;;;3.96;100.00
9462;BME280;4769;42.660;23.262;2023-02-04T11:02:34;93394.19;;;4.01;99.59
9462;BME280;4769;42.660;23.262;2023-02-04T11:05:03;93385.81;;;3.93;98.49
9462;BME280;4769;42.660;23.262;2023-02-04T11:07:33;93385.97;;;3.98;95.19
9462;BME280;4769;42.660;23.262;2023-02-04T11:10:02;93393.44;;;4.12;99.53
9462;BME280;4769;42.660;23.262;2023-02-04T11:12:38;93393.72;;;4.22;96.92
9462;BME280;4769;42.660;23.262;2023-02-04T11:15:06;93405.66;;;4.30;96.40
9462;BME280;4769;42.660;23.262;2023-02-04T11:18:02;93385.53;;;4.19;98.66
9462;BME280;4769;42.660;23.262;2023-02-04T11:20:32;93388.50;;;3.86;99.99
9462;BME280;4769;42.660;23.262;2023-02-04T11:23:16;93387.44;;;3.76;98.08
9462;BME280;4769;42.660;23.262;2023-02-04T11:26:12;93379.31;;;3.84;98.46
9462;BME280;4769;42.660;23.262;2023-02-04T11:28:50;93375.31;;;3.81;100.00
9462;BME280;4769;42.660;23.262;2023-02-04T11:31:40;93372.78;;;3.75;100.00
9462;BME280;4769;42.660;23.262;2023-02-04T11:34:11;93389.38;;;3.98;97.63
9462;BME280;4769;42.660;23.262;2023-02-04T11:39:36;93377.44;;;3.91;95.67
9462;BME280;4769;42.660;23.262;2023-02-04T11:42:16;93383.50;;;4.21;96.36
9462;BME280;4769;42.660;23.262;2023-02-04T11:44:48;93389.50;;;4.21;96.30
9462;BME280;4769;42.660;23.262;2023-02-04T11:47:15;93379.56;;;4.30;95.66
9462;BME280;4769;42.660;23.262;2023-02-04T11:49:44;93390.03;;;4.59;96.98
9462;BME280;4769;42.660;23.262;2023-02-04T11:52:13;93395.94;;;4.37;98.67
9462;BME280;4769;42.660;23.262;2023-02-04T11:54:41;93405.22;;;4.33;94.67
9462;BME280;4769;42.660;23.262;2023-02-04T11:57:11;93399.97;;;4.03;97.92
9462;BME280;4769;42.660;23.262;2023-02-04T11:59:38;93381.06;;;4.08;98.11
9462;BME280;4769;42.660;23.262;2023-02-04T12:02:13;93387.78;;;3.79;98.71
9462;BME280;4769;42.660;23.262;2023-02-04T12:04:53;93382.44;;;3.92;100.00
9462;BME280;4769;42.660;23.262;2023-02-04T12:07:24;93395.81;;;3.78;100.00
9462;BME280;4769;42.660;23.262;2023-02-04T12:09:52;93390.81;;;4.12;100.00
9462;BME280;4769;42.660;23.262;2023-02-04T12:12:26;93393.94;;;4.03;100.00
9462;BME280;4769;42.660;23.262;2023-02-04T12:15:13;93369.31;;;3.99;98.75
9462;BME280;4769;42.660;23.262;2023-02-04T12:17:43;93375.38;;;4.11;99.72
9462;BME280;4769;42.660;23.262;2023-02-04T12:20:11;93389.94;;;4.18;99.96
9462;BME280;4769;42.660;23.262;2023-02-04T12:22:38;93381.69;;;4.03;100.00
9462;BME280;4769;42.660;23.262;2023-02-04T12:25:07;93394.00;;;4.14;100.00
9462;BME280;4769;42.660;23.262;2023-02-04T12:27:37;93373.78;;;4.28;100.00
9462;BME280;4769;42.660;23.262;2023-02-04T12:30:05;93367.19;;;4.25;99.03
9462;BME280;4769;42.660;23.262;2023-02-04T12:32:32;93388.84;;;4.26;99.42
9462;BME280;4769;42.660;23.262;2023-02-04T12:34:59;93388.63;;;4.27;99.09
9462;BME280;4769;42.660;23.262;2023-02-04T12:37:26;93344.31;;;4.09;95.85
9462;BME280;4769;42.660;23.262;2023-02-04T12:39:53;93378.31;;;4.32;95.05
9462;BME280;4769;42.660;23.262;2023-02-04T12:42:20;93392.03;;;4.28;94.46
9462;BME280;4769;42.660;23.262;2023-02-04T12:44:48;93384.22;;;4.28;96.46
9462;BME280;4769;42.660;23.262;2023-02-04T12:47:15;93382.38;;;4.28;96.61
9462;BME280;4769;42.660;23.262;2023-02-04T12:49:42;93378.78;;;4.29;97.33
9462;BME280;4769;42.660;23.262;2023-02-04T12:52:08;93362.09;;;4.30;95.12
9462;BME280;4769;42.660;23.262;2023-02-04T12:54:35;93366.06;;;4.51;92.59
9462;BME280;4769;42.660;23.262;2023-02-04T12:57:02;93386.25;;;4.55;92.45
9462;BME280;4769;42.660;23.262;2023-02-04T12:59:29;93364.28;;;4.33;91.38
9462;BME280;4769;42.660;23.262;2023-02-04T13:01:57;93378.31;;;4.32;91.76
9462;BME280;4769;42.660;23.262;2023-02-04T13:04:25;93380.59;;;4.29;90.70
9462;BME280;4769;42.660;23.262;2023-02-04T13:06:52;93386.06;;;4.39;89.79
9462;BME280;4769;42.660;23.262;2023-02-04T13:09:19;93377.75;;;4.30;90.87
9462;BME280;4769;42.660;23.262;2023-02-04T13:11:46;93399.72;;;4.41;90.47
9462;BME280;4769;42.660;23.262;2023-02-04T13:14:13;93369.97;;;4.12;89.98
9462;BME280;4769;42.660;23.262;2023-02-04T13:16:40;93399.13;;;4.39;90.20
9462;BME280;4769;42.660;23.262;2023-02-04T13:19:08;93382.31;;;4.35;90.77
9462;BME280;4769;42.660;23.262;2023-02-04T13:21:35;93411.03;;;4.17;91.42
9462;BME280;4769;42.660;23.262;2023-02-04T13:24:02;93400.81;;;4.33;90.27
9462;BME280;4769;42.660;23.262;2023-02-04T13:26:29;93406.41;;;4.19;91.38
9462;BME280;4769;42.660;23.262;2023-02-04T13:28:56;93390.31;;;4.22;91.22
9462;BME280;4769;42.660;23.262;2023-02-04T13:31:23;93390.97;;;4.17;90.52